Hyundai Hongkong — 5BZL3 — position and weather

sailwx.info

Track history (hours):
 
Tides and Currents Weather Stations Pressure Air Temp Water Temp Dewpoint Dewpoint Depression Visibility Wind Speed Wind Dir Waves Ship Positions

Hyundai Hongkong

Last reported at 2017-Dec-12 12:44 UTC. Time now 2017-Dec-15 08:27 UTC.
Position N 25°26' E 120°47'.

Length 304 m; draft 12.5 m.

Type: Cargo ship. MMSI: 212348000.

Date/timePositionNaut miles runAvg speedWind from/ knotsBaromVisibWave heightAir tempDewpointWater temp
2017-Dec-12 12:44N 25°26' E 120°47'419.7
2017-Dec-12 12:30N 25°23' E 120°45'10319.5
2017-Dec-12 07:13N 23°49' E 119°58'821.3
2017-Dec-12 06:51N 23°41' E 119°55'721.4
2017-Dec-12 06:31N 23°34' E 119°53'1121.4
2017-Dec-12 06:00N 23°23' E 119°54'2320.7
2017-Dec-12 04:53N 23°00' E 119°53'820.6
2017-Dec-12 04:30N 22°53' E 119°56'1020.9
2017-Dec-12 04:00N 22°44' E 120°03'1020.6
2017-Dec-12 03:31N 22°38' E 120°11'815.4
2017-Dec-12 03:01N 22°33' E 120°18'2 2.8
2017-Dec-12 02:23N 22°33' E 120°20'0 0.0
2017-Dec-12 01:59N 22°33' E 120°20'0 0.0
2017-Dec-12 01:29N 22°33' E 120°20'0 0.0
2017-Dec-12 00:47N 22°33' E 120°20'0 0.0
2017-Dec-12 00:17N 22°33' E 120°20'0 0.0
2017-Dec-11 23:53N 22°33' E 120°20'0 0.0
2017-Dec-11 23:23N 22°33' E 120°20'0 0.0
2017-Dec-11 22:59N 22°33' E 120°20'0 0.0
2017-Dec-11 22:23N 22°33' E 120°20'0 0.0
2017-Dec-11 20:59N 22°33' E 120°20'0 0.0
2017-Dec-11 20:11N 22°33' E 120°20'0 0.0
2017-Dec-11 19:17N 22°33' E 120°20'0 0.0
2017-Dec-11 18:59N 22°33' E 120°20'0 0.0
2017-Dec-11 18:17N 22°33' E 120°20'0 0.0
2017-Dec-11 17:47N 22°33' E 120°20'0 0.0
2017-Dec-11 17:29N 22°33' E 120°20'0 0.0
2017-Dec-11 16:47N 22°33' E 120°20'0 0.0
2017-Dec-11 16:29N 22°33' E 120°20'0 0.0
2017-Dec-11 15:59N 22°33' E 120°20'0 0.0
2017-Dec-11 15:17N 22°33' E 120°20'0 0.0
2017-Dec-11 14:59N 22°33' E 120°20'0 0.3
2017-Dec-11 14:30N 22°33' E 120°20'4 7.1
2017-Dec-11 14:00N 22°32' E 120°16'611.1
2017-Dec-11 13:31N 22°31' E 120°10'714.4
2017-Dec-11 13:00N 22°30' E 120°02'612.2
2017-Dec-11 12:30N 22°29' E 119°56'917.5
2017-Dec-11 12:00N 22°27' E 119°46'315 7.4
2017-Dec-09 17:18N 22°17' E 114°06'3 0.3
2017-Dec-09 05:08N 22°20' E 114°07'0 1.2
2017-Dec-09 05:00N 22°20' E 114°07'  
Track history (hours):
 
Tides and Currents Weather Stations Pressure Air Temp Water Temp Dewpoint Dewpoint Depression Visibility Wind Speed Wind Dir Waves Ship Positions

Hyundai Hongkong

Last reported at 2017-Dec-12 12:44 UTC. Time now 2017-Dec-15 08:27 UTC.
Position N 25°26' E 120°47'.

Length 304 m; draft 12.5 m.

Type: Cargo ship. MMSI: 212348000.

Date/timePositionNaut miles runAvg speedWind from/ knotsBaromVisibWave heightAir tempDewpointWater temp
2017-Dec-12 12:44N 25°26' E 120°47'419.7
2017-Dec-12 12:30N 25°23' E 120°45'10319.5
2017-Dec-12 07:13N 23°49' E 119°58'821.3
2017-Dec-12 06:51N 23°41' E 119°55'721.4
2017-Dec-12 06:31N 23°34' E 119°53'1121.4
2017-Dec-12 06:00N 23°23' E 119°54'2320.7
2017-Dec-12 04:53N 23°00' E 119°53'820.6
2017-Dec-12 04:30N 22°53' E 119°56'1020.9
2017-Dec-12 04:00N 22°44' E 120°03'1020.6
2017-Dec-12 03:31N 22°38' E 120°11'815.4
2017-Dec-12 03:01N 22°33' E 120°18'2 2.8
2017-Dec-12 02:23N 22°33' E 120°20'0 0.0
2017-Dec-12 01:59N 22°33' E 120°20'0 0.0
2017-Dec-12 01:29N 22°33' E 120°20'0 0.0
2017-Dec-12 00:47N 22°33' E 120°20'0 0.0
2017-Dec-12 00:17N 22°33' E 120°20'0 0.0
2017-Dec-11 23:53N 22°33' E 120°20'0 0.0
2017-Dec-11 23:23N 22°33' E 120°20'0 0.0
2017-Dec-11 22:59N 22°33' E 120°20'0 0.0
2017-Dec-11 22:23N 22°33' E 120°20'0 0.0
2017-Dec-11 20:59N 22°33' E 120°20'0 0.0
2017-Dec-11 20:11N 22°33' E 120°20'0 0.0
2017-Dec-11 19:17N 22°33' E 120°20'0 0.0
2017-Dec-11 18:59N 22°33' E 120°20'0 0.0
2017-Dec-11 18:17N 22°33' E 120°20'0 0.0
2017-Dec-11 17:47N 22°33' E 120°20'0 0.0
2017-Dec-11 17:29N 22°33' E 120°20'0 0.0
2017-Dec-11 16:47N 22°33' E 120°20'0 0.0
2017-Dec-11 16:29N 22°33' E 120°20'0 0.0
2017-Dec-11 15:59N 22°33' E 120°20'0 0.0
2017-Dec-11 15:17N 22°33' E 120°20'0 0.0
2017-Dec-11 14:59N 22°33' E 120°20'0 0.3
2017-Dec-11 14:30N 22°33' E 120°20'4 7.1
2017-Dec-11 14:00N 22°32' E 120°16'611.1
2017-Dec-11 13:31N 22°31' E 120°10'714.4
2017-Dec-11 13:00N 22°30' E 120°02'612.2
2017-Dec-11 12:30N 22°29' E 119°56'917.5
2017-Dec-11 12:00N 22°27' E 119°46'315 7.4
2017-Dec-09 17:18N 22°17' E 114°06'3 0.3
2017-Dec-09 05:08N 22°20' E 114°07'0 1.2
2017-Dec-09 05:00N 22°20' E 114°07'  

Dump ship's entire track history